createdAt,value
2017-10-08T00:00:48.502Z,54.40
2017-10-08T00:03:16.533Z,54.20
2017-10-08T00:05:44.370Z,54.40
2017-10-08T00:08:12.342Z,54.50
2017-10-08T00:10:40.352Z,54.70
2017-10-08T00:13:08.293Z,55.00
2017-10-08T00:15:36.164Z,54.80
2017-10-08T00:18:04.024Z,54.70
2017-10-08T00:20:32.453Z,55.00
2017-10-08T00:23:00.300Z,54.90
2017-10-08T00:25:28.257Z,55.00
2017-10-08T00:27:56.200Z,54.90
2017-10-08T00:30:24.202Z,54.60
2017-10-08T00:32:52.117Z,54.50
2017-10-08T00:35:20.769Z,54.70
2017-10-08T00:37:48.654Z,54.70
2017-10-08T00:40:17.629Z,54.60
2017-10-08T00:42:45.550Z,54.60
2017-10-08T00:45:14.258Z,54.50
2017-10-08T00:47:42.187Z,54.50
2017-10-08T00:50:10.864Z,54.60
2017-10-08T00:52:39.572Z,54.70
2017-10-08T00:55:07.543Z,54.70
2017-10-08T00:57:36.382Z,54.80
2017-10-08T01:00:04.577Z,54.70
2017-10-08T01:02:33.334Z,55.60
2017-10-08T01:05:01.255Z,55.00
2017-10-08T01:07:29.140Z,54.90
2017-10-08T01:09:57.000Z,55.10
2017-10-08T01:12:24.931Z,55.20
2017-10-08T01:14:53.636Z,55.10
2017-10-08T01:17:21.615Z,55.00
2017-10-08T01:19:49.854Z,55.10
2017-10-08T01:22:17.839Z,55.10
2017-10-08T01:24:46.762Z,55.60
2017-10-08T01:27:14.708Z,55.50
2017-10-08T01:29:42.760Z,55.70
2017-10-08T01:32:10.768Z,55.60
2017-10-08T01:34:38.947Z,55.60
2017-10-08T01:37:06.841Z,55.70
2017-10-08T01:39:34.874Z,55.80
2017-10-08T01:42:03.556Z,55.90
2017-10-08T01:44:31.619Z,55.80
2017-10-08T01:46:59.633Z,55.80
2017-10-08T01:49:27.694Z,55.90
2017-10-08T01:51:55.585Z,56.00
2017-10-08T01:54:23.552Z,55.90
2017-10-08T01:56:51.528Z,56.10
2017-10-08T01:59:19.559Z,56.10
2017-10-08T02:01:47.457Z,55.90
2017-10-08T02:04:15.347Z,56.00
2017-10-08T02:06:43.997Z,56.00
2017-10-08T02:09:11.930Z,56.00
2017-10-08T02:11:39.881Z,56.00
2017-10-08T02:14:08.560Z,56.00
2017-10-08T02:16:37.188Z,56.10
2017-10-08T02:19:05.097Z,56.70
2017-10-08T02:21:33.035Z,55.90
2017-10-08T02:24:00.883Z,56.00
2017-10-08T02:26:28.783Z,55.90
2017-10-08T02:28:56.774Z,55.80
2017-10-08T02:31:24.639Z,55.70
2017-10-08T02:33:53.248Z,55.70
2017-10-08T02:36:21.291Z,55.60
2017-10-08T02:38:49.929Z,55.80
2017-10-08T02:41:18.134Z,55.80
2017-10-08T02:43:45.991Z,55.80
2017-10-08T02:46:13.932Z,55.80
2017-10-08T02:48:41.785Z,55.70
2017-10-08T02:51:09.668Z,55.80
2017-10-08T02:53:37.660Z,55.90
2017-10-08T02:56:05.674Z,55.80
2017-10-08T02:58:33.642Z,56.10
2017-10-08T03:01:01.797Z,56.00
2017-10-08T03:03:29.669Z,55.90
2017-10-08T03:05:58.283Z,55.90
2017-10-08T03:08:26.343Z,55.80
2017-10-08T03:10:54.262Z,55.80
2017-10-08T03:13:22.679Z,55.80
2017-10-08T03:15:51.328Z,55.60
2017-10-08T03:18:19.237Z,55.60
2017-10-08T03:20:48.220Z,55.50
2017-10-08T03:23:17.000Z,55.50
2017-10-08T03:25:45.904Z,55.30
2017-10-08T03:28:14.519Z,55.50
2017-10-08T03:30:42.430Z,55.50
2017-10-08T03:33:11.103Z,55.80
2017-10-08T03:35:39.049Z,55.70
2017-10-08T03:38:06.995Z,55.70
2017-10-08T03:40:34.951Z,55.80
2017-10-08T03:43:02.910Z,55.90
2017-10-08T03:45:31.591Z,55.80
2017-10-08T03:48:00.359Z,56.00
2017-10-08T03:50:28.341Z,55.90
2017-10-08T03:52:57.072Z,56.00
2017-10-08T03:55:25.126Z,56.00
2017-10-08T03:57:53.056Z,55.90
2017-10-08T04:00:20.934Z,55.80
2017-10-08T04:02:49.619Z,56.10
2017-10-08T04:05:18.304Z,56.10
2017-10-08T04:07:47.180Z,56.20
2017-10-08T04:10:15.073Z,56.20
2017-10-08T04:12:43.856Z,56.10
2017-10-08T04:15:12.492Z,56.10
2017-10-08T04:17:40.357Z,56.10
2017-10-08T04:20:08.297Z,56.10
2017-10-08T04:22:36.387Z,56.10
2017-10-08T04:25:04.384Z,56.10
2017-10-08T04:27:32.342Z,56.20
2017-10-08T04:30:00.221Z,56.40
2017-10-08T04:32:28.280Z,56.40
2017-10-08T04:34:56.189Z,56.50
2017-10-08T04:37:24.316Z,56.50
2017-10-08T04:39:52.172Z,56.50
2017-10-08T04:42:20.074Z,56.50
2017-10-08T04:44:48.009Z,56.50
2017-10-08T04:47:15.897Z,56.50
2017-10-08T04:49:43.842Z,56.50
2017-10-08T04:52:11.786Z,56.50
2017-10-08T04:54:39.696Z,56.60
2017-10-08T04:57:07.557Z,56.40
2017-10-08T04:59:35.455Z,56.40
2017-10-08T05:02:04.321Z,56.40
2017-10-08T05:04:32.226Z,56.40
2017-10-08T05:07:01.095Z,55.80
2017-10-08T05:09:28.953Z,55.80
2017-10-08T05:11:57.194Z,56.20
2017-10-08T05:14:25.085Z,56.20
2017-10-08T05:16:53.034Z,56.10
2017-10-08T05:19:20.929Z,56.20
2017-10-08T05:21:49.035Z,56.10
2017-10-08T05:24:17.787Z,56.20
2017-10-08T05:26:45.643Z,56.20
2017-10-08T05:29:13.480Z,56.30
2017-10-08T05:31:41.359Z,56.30
2017-10-08T05:34:09.239Z,56.30
2017-10-08T05:36:37.091Z,56.10
2017-10-08T05:39:05.123Z,55.90
2017-10-08T05:41:32.988Z,55.90
2017-10-08T05:44:01.659Z,56.30
2017-10-08T05:46:30.271Z,56.30
2017-10-08T05:48:58.141Z,56.20
2017-10-08T05:51:26.076Z,56.30
2017-10-08T05:53:54.756Z,56.30
2017-10-08T05:56:22.669Z,56.30
2017-10-08T05:58:50.778Z,56.50
2017-10-08T06:01:18.690Z,56.50
2017-10-08T06:03:47.254Z,56.60
2017-10-08T06:06:15.884Z,56.80
2017-10-08T06:08:43.785Z,56.50
2017-10-08T06:11:11.660Z,56.50
2017-10-08T06:13:39.503Z,56.60
2017-10-08T06:16:07.331Z,56.50
2017-10-08T06:18:35.308Z,56.60
2017-10-08T06:21:03.892Z,57.20
2017-10-08T06:23:31.904Z,56.50
2017-10-08T06:25:59.816Z,56.50
2017-10-08T06:28:27.657Z,56.50
2017-10-08T06:30:56.264Z,56.60
2017-10-08T06:33:24.163Z,56.60
2017-10-08T06:35:52.010Z,56.60
2017-10-08T06:38:19.964Z,56.50
2017-10-08T06:40:47.889Z,56.50
2017-10-08T06:43:15.765Z,56.60
2017-10-08T06:45:43.643Z,56.50
2017-10-08T06:48:12.396Z,56.60
2017-10-08T06:50:40.678Z,56.60
2017-10-08T06:53:08.591Z,56.50
2017-10-08T06:55:36.748Z,57.00
2017-10-08T06:58:05.605Z,56.40
2017-10-08T07:00:33.469Z,56.40
2017-10-08T07:03:01.703Z,56.60
2017-10-08T07:05:30.464Z,56.50
2017-10-08T07:07:59.197Z,56.60
2017-10-08T07:10:27.083Z,56.60
2017-10-08T07:12:54.927Z,56.60
2017-10-08T07:15:22.787Z,56.50
2017-10-08T07:17:50.596Z,56.50
2017-10-08T07:20:18.534Z,56.70
2017-10-08T07:22:46.439Z,56.90
2017-10-08T07:25:15.112Z,56.90
2017-10-08T07:27:43.059Z,56.80
2017-10-08T07:30:10.919Z,57.40
2017-10-08T07:32:38.838Z,56.90
2017-10-08T07:35:07.529Z,56.50
2017-10-08T07:37:36.160Z,56.20
2017-10-08T07:40:04.020Z,56.20
2017-10-08T07:42:31.850Z,56.00
2017-10-08T07:45:00.483Z,56.00
2017-10-08T07:47:28.431Z,56.00
2017-10-08T07:49:56.330Z,55.90
2017-10-08T07:52:24.306Z,55.60
2017-10-08T07:54:52.175Z,55.40
2017-10-08T07:57:20.027Z,55.00
2017-10-08T07:59:47.891Z,55.00
2017-10-08T08:02:15.745Z,54.80
2017-10-08T08:04:43.643Z,53.70
2017-10-08T08:07:11.461Z,53.20
2017-10-08T08:09:39.284Z,52.10
2017-10-08T08:12:07.128Z,51.70
2017-10-08T08:14:34.980Z,51.00
2017-10-08T08:17:02.905Z,50.90
2017-10-08T08:19:30.842Z,50.90
2017-10-08T08:21:58.697Z,50.30
2017-10-08T08:24:26.540Z,50.00
2017-10-08T08:26:54.400Z,49.60
2017-10-08T08:29:22.229Z,49.70
2017-10-08T08:31:50.826Z,49.60
2017-10-08T08:34:18.671Z,49.50
2017-10-08T08:36:46.546Z,49.30
2017-10-08T08:39:15.248Z,49.10
2017-10-08T08:41:43.302Z,49.00
2017-10-08T08:44:11.893Z,48.30
2017-10-08T08:46:40.476Z,47.90
2017-10-08T08:49:09.107Z,48.00
2017-10-08T08:51:37.023Z,48.00
2017-10-08T08:54:05.686Z,48.00
2017-10-08T08:56:33.606Z,47.90
2017-10-08T08:59:01.460Z,47.90
2017-10-08T09:01:29.347Z,47.30
2017-10-08T09:03:57.272Z,47.90
2017-10-08T09:06:25.994Z,47.00
2017-10-08T09:08:53.910Z,47.00
2017-10-08T09:11:22.653Z,47.00
2017-10-08T09:13:51.536Z,47.00
2017-10-08T09:16:19.401Z,47.20
2017-10-08T09:18:47.317Z,47.30
2017-10-08T09:21:15.644Z,47.70
2017-10-08T09:23:43.553Z,47.50
2017-10-08T09:26:11.368Z,47.60
2017-10-08T09:28:39.248Z,47.40
2017-10-08T09:31:07.144Z,47.70
2017-10-08T09:33:35.010Z,47.60
2017-10-08T09:36:03.279Z,47.60
2017-10-08T09:38:31.481Z,47.80
2017-10-08T09:41:00.431Z,47.80
2017-10-08T09:43:28.240Z,47.80
2017-10-08T09:45:56.094Z,47.90
2017-10-08T09:48:24.860Z,47.80
2017-10-08T09:50:52.680Z,47.80
2017-10-08T09:53:21.284Z,47.90
2017-10-08T09:55:49.125Z,47.90
2017-10-08T09:58:17.786Z,47.60
2017-10-08T10:00:45.911Z,47.60
2017-10-08T10:03:13.810Z,47.90
2017-10-08T10:05:41.992Z,47.70
2017-10-08T10:08:09.978Z,47.80
2017-10-08T10:10:38.719Z,48.40
2017-10-08T10:13:06.538Z,47.80
2017-10-08T10:15:35.188Z,48.90
2017-10-08T10:18:03.018Z,48.20
2017-10-08T10:20:30.904Z,48.30
2017-10-08T10:22:58.793Z,48.30
2017-10-08T10:25:26.761Z,48.20
2017-10-08T10:27:54.810Z,48.40
2017-10-08T10:30:22.728Z,48.40
2017-10-08T10:32:51.334Z,47.40
2017-10-08T10:35:19.176Z,47.40
2017-10-08T10:37:47.791Z,47.60
2017-10-08T10:40:15.827Z,47.60
2017-10-08T10:42:43.647Z,47.80
2017-10-08T10:45:11.532Z,47.70
2017-10-08T10:47:39.476Z,48.30
2017-10-08T10:50:07.360Z,48.70
2017-10-08T10:52:35.412Z,48.50
2017-10-08T10:55:03.406Z,48.40
2017-10-08T10:57:31.245Z,48.20
2017-10-08T10:59:59.131Z,46.80
2017-10-08T11:02:27.123Z,49.00
2017-10-08T11:04:55.152Z,49.60
2017-10-08T11:07:23.109Z,49.90
2017-10-08T11:09:51.014Z,50.30
2017-10-08T11:12:18.864Z,50.30
2017-10-08T11:14:46.757Z,50.60
2017-10-08T11:17:14.622Z,50.60
2017-10-08T11:19:42.608Z,50.70
2017-10-08T11:22:10.767Z,51.10
2017-10-08T11:24:38.756Z,51.70
2017-10-08T11:27:07.380Z,52.60
2017-10-08T11:29:36.039Z,52.80
2017-10-08T11:32:04.647Z,52.00
2017-10-08T11:34:32.467Z,52.00
2017-10-08T11:37:00.412Z,52.70
2017-10-08T11:39:28.287Z,55.30
2017-10-08T11:41:56.348Z,55.50
2017-10-08T11:44:24.287Z,55.70
2017-10-08T11:46:52.127Z,55.40
2017-10-08T11:49:20.784Z,55.40
2017-10-08T11:51:48.600Z,55.40
2017-10-08T11:54:16.425Z,55.10
2017-10-08T11:56:44.228Z,55.70
2017-10-08T11:59:12.108Z,55.30
2017-10-08T12:01:39.989Z,55.70
2017-10-08T12:04:08.250Z,55.50
2017-10-08T12:06:46.829Z,56.30
2017-10-08T12:09:14.967Z,56.80
2017-10-08T12:11:42.832Z,57.20
2017-10-08T12:14:10.671Z,56.50
2017-10-08T12:16:38.608Z,56.50
2017-10-08T12:19:06.468Z,56.10
2017-10-08T12:21:35.081Z,56.20
2017-10-08T12:24:02.992Z,56.20
2017-10-08T12:26:31.184Z,56.00
2017-10-08T12:28:59.244Z,56.00
2017-10-08T12:31:27.081Z,55.60
2017-10-08T12:33:54.887Z,55.70
2017-10-08T12:36:22.835Z,55.30
2017-10-08T12:38:50.719Z,54.70
2017-10-08T12:41:20.234Z,55.10
2017-10-08T12:43:50.385Z,55.00
2017-10-08T12:46:18.213Z,54.90
2017-10-08T12:48:46.830Z,56.60
2017-10-08T12:51:16.288Z,56.30
2017-10-08T12:53:45.115Z,56.90
2017-10-08T12:56:13.032Z,56.90
2017-10-08T12:58:41.101Z,55.50
2017-10-08T13:01:09.031Z,55.20
2017-10-08T13:03:37.458Z,54.30
2017-10-08T13:06:05.323Z,55.30
2017-10-08T13:08:33.243Z,55.30
2017-10-08T13:11:01.073Z,54.70
2017-10-08T13:13:29.124Z,55.30
2017-10-08T13:15:56.951Z,55.90
2017-10-08T13:18:24.968Z,56.10
2017-10-08T13:20:52.774Z,56.60
2017-10-08T13:23:20.725Z,56.20
2017-10-08T13:25:48.776Z,55.90
2017-10-08T13:28:16.696Z,54.80
2017-10-08T13:30:44.527Z,54.70
2017-10-08T13:33:13.382Z,55.60
2017-10-08T13:35:41.211Z,55.60
2017-10-08T13:38:09.110Z,56.70
2017-10-08T13:40:38.009Z,57.50
2017-10-08T13:43:05.857Z,57.80
2017-10-08T13:45:33.693Z,57.80
2017-10-08T13:48:01.602Z,55.70
2017-10-08T13:50:29.637Z,56.30
2017-10-08T13:52:57.557Z,51.30
2017-10-08T13:55:25.409Z,53.70
2017-10-08T13:57:53.260Z,55.70
2017-10-08T14:00:21.090Z,55.00
2017-10-08T14:02:48.909Z,55.60
2017-10-08T14:05:16.821Z,55.40
2017-10-08T14:07:44.849Z,53.20
2017-10-08T14:10:12.791Z,52.10
2017-10-08T14:12:41.473Z,52.20
2017-10-08T14:15:09.377Z,52.20
2017-10-08T14:17:37.223Z,52.80
2017-10-08T14:20:05.505Z,51.90
2017-10-08T14:22:34.168Z,52.20
2017-10-08T14:25:02.125Z,52.20
2017-10-08T14:27:30.012Z,52.60
2017-10-08T14:29:57.928Z,50.60
2017-10-08T14:32:26.586Z,51.50
2017-10-08T14:34:54.621Z,51.40
2017-10-08T14:37:22.726Z,51.20
2017-10-08T14:39:51.008Z,51.20
2017-10-08T14:42:20.096Z,49.90
2017-10-08T14:44:48.879Z,51.30
2017-10-08T14:47:25.294Z,51.20
2017-10-08T14:49:53.149Z,52.00
2017-10-08T14:52:21.797Z,52.20
2017-10-08T14:54:49.674Z,52.20
2017-10-08T14:57:17.526Z,53.60
2017-10-08T14:59:49.496Z,54.70
2017-10-08T15:02:17.765Z,53.00
2017-10-08T15:04:45.621Z,53.60
2017-10-08T15:07:14.374Z,53.80
2017-10-08T15:09:42.614Z,54.20
2017-10-08T15:12:11.530Z,55.80
2017-10-08T15:14:40.202Z,56.90
2017-10-08T15:17:08.880Z,56.40
2017-10-08T15:19:37.910Z,56.70
2017-10-08T15:22:06.132Z,56.70
2017-10-08T15:24:34.339Z,57.40
2017-10-08T15:27:02.204Z,57.90
2017-10-08T15:29:30.848Z,58.30
2017-10-08T15:32:00.053Z,58.30
2017-10-08T15:34:28.504Z,58.30
2017-10-08T15:36:57.235Z,58.50
2017-10-08T15:39:26.162Z,59.20
2017-10-08T15:41:54.242Z,59.20
2017-10-08T15:44:22.147Z,59.20
2017-10-08T15:46:52.317Z,58.70
2017-10-08T15:49:20.232Z,58.40
2017-10-08T15:51:48.223Z,56.90
2017-10-08T15:54:16.100Z,56.20
2017-10-08T15:56:44.679Z,56.50
2017-10-08T15:59:16.334Z,56.80
2017-10-08T16:01:44.398Z,56.70
2017-10-08T16:04:12.231Z,57.20
2017-10-08T16:06:40.762Z,57.00
2017-10-08T16:09:08.859Z,55.90
2017-10-08T16:11:36.751Z,56.20
2017-10-08T16:14:05.408Z,58.50
2017-10-08T16:16:33.330Z,58.50
2017-10-08T16:19:01.345Z,58.80
2017-10-08T16:21:29.223Z,59.90
2017-10-08T16:23:57.116Z,59.90
2017-10-08T16:26:25.187Z,59.60
2017-10-08T16:28:53.016Z,59.70
2017-10-08T16:31:20.851Z,59.70
2017-10-08T16:33:49.447Z,59.20
2017-10-08T16:36:18.108Z,59.50
2017-10-08T16:38:45.970Z,59.50
2017-10-08T16:41:13.833Z,59.90
2017-10-08T16:43:42.564Z,60.30
2017-10-08T16:46:10.745Z,60.30
2017-10-08T16:48:38.764Z,61.10
2017-10-08T16:51:06.667Z,61.20
2017-10-08T16:53:34.697Z,61.40
2017-10-08T16:56:02.682Z,61.90
2017-10-08T16:58:30.509Z,61.70
2017-10-08T17:00:58.515Z,61.40
2017-10-08T17:03:26.372Z,61.60
2017-10-08T17:05:54.259Z,61.60
2017-10-08T17:08:22.939Z,62.00
2017-10-08T17:10:51.656Z,62.10
2017-10-08T17:13:19.571Z,62.10
2017-10-08T17:15:47.776Z,62.10
2017-10-08T17:18:16.390Z,62.80
2017-10-08T17:20:44.569Z,62.80
2017-10-08T17:23:12.492Z,62.90
2017-10-08T17:25:41.257Z,63.10
2017-10-08T17:28:09.772Z,63.00
2017-10-08T17:30:38.418Z,62.70
2017-10-08T17:33:06.291Z,62.60
2017-10-08T17:35:34.267Z,62.60
2017-10-08T17:38:02.955Z,62.10
2017-10-08T17:40:30.872Z,62.10
2017-10-08T17:42:58.719Z,62.40
2017-10-08T17:45:30.769Z,62.20
2017-10-08T17:47:58.676Z,62.20
2017-10-08T17:50:26.600Z,61.90
2017-10-08T17:52:55.427Z,62.40
2017-10-08T17:55:23.426Z,62.40
2017-10-08T17:57:51.604Z,62.50
2017-10-08T18:00:19.617Z,62.50
2017-10-08T18:02:47.541Z,62.40
2017-10-08T18:05:15.389Z,62.20
2017-10-08T18:07:43.299Z,62.30
2017-10-08T18:10:11.260Z,62.40
2017-10-08T18:12:39.929Z,62.90
2017-10-08T18:15:07.885Z,62.80
2017-10-08T18:17:35.770Z,62.80
2017-10-08T18:20:03.715Z,62.90
2017-10-08T18:22:32.115Z,63.00
2017-10-08T18:25:00.207Z,63.10
2017-10-08T18:27:28.498Z,63.10
2017-10-08T18:29:57.115Z,63.10
2017-10-08T18:32:25.389Z,63.10
2017-10-08T18:34:53.432Z,63.00
2017-10-08T18:37:22.089Z,62.80
2017-10-08T18:39:50.183Z,62.80
2017-10-08T18:42:19.002Z,62.90
2017-10-08T18:44:46.934Z,62.90
2017-10-08T18:47:15.588Z,62.80
2017-10-08T18:49:44.403Z,62.80
2017-10-08T18:52:13.601Z,62.70
2017-10-08T18:54:42.455Z,62.90
2017-10-08T18:57:10.384Z,62.80
2017-10-08T18:59:38.299Z,62.50
2017-10-08T19:02:06.313Z,62.30
2017-10-08T19:04:34.295Z,62.00
2017-10-08T19:07:02.204Z,62.30
2017-10-08T19:09:30.094Z,62.40
2017-10-08T19:11:57.919Z,62.60
2017-10-08T19:14:25.751Z,62.60
2017-10-08T19:16:54.336Z,63.10
2017-10-08T19:19:23.028Z,63.00
2017-10-08T19:21:50.868Z,63.00
2017-10-08T19:24:20.718Z,63.10
2017-10-08T19:26:48.555Z,63.80
2017-10-08T19:29:17.195Z,63.00
2017-10-08T19:31:45.288Z,63.00
2017-10-08T19:34:14.037Z,62.60
2017-10-08T19:36:42.021Z,62.60
2017-10-08T19:39:10.672Z,62.60
2017-10-08T19:41:39.713Z,62.60
2017-10-08T19:44:08.332Z,62.10
2017-10-08T19:46:39.212Z,61.70
2017-10-08T19:49:07.584Z,61.60
2017-10-08T19:51:36.083Z,61.60
2017-10-08T19:54:05.321Z,61.70
2017-10-08T19:56:34.580Z,61.40
2017-10-08T19:59:02.625Z,61.40
2017-10-08T20:01:30.528Z,61.30
2017-10-08T20:03:58.807Z,61.00
2017-10-08T20:06:26.808Z,60.90
2017-10-08T20:08:55.532Z,60.70
2017-10-08T20:11:23.393Z,60.70
2017-10-08T20:13:51.437Z,60.60
2017-10-08T20:16:20.106Z,61.50
2017-10-08T20:18:48.107Z,61.00
2017-10-08T20:21:16.283Z,61.20
2017-10-08T20:23:44.758Z,61.00
2017-10-08T20:26:12.647Z,60.80
2017-10-08T20:28:41.319Z,60.90
2017-10-08T20:31:09.365Z,60.90
2017-10-08T20:33:38.344Z,61.10
2017-10-08T20:36:06.987Z,61.00
2017-10-08T20:38:34.980Z,60.80
2017-10-08T20:41:03.638Z,60.80
2017-10-08T20:43:31.467Z,60.80
2017-10-08T20:46:00.151Z,61.00
2017-10-08T20:48:28.029Z,60.80
2017-10-08T20:50:56.218Z,61.30
2017-10-08T20:53:24.080Z,61.40
2017-10-08T20:55:52.408Z,61.50
2017-10-08T20:58:20.365Z,61.60
2017-10-08T21:00:48.245Z,61.60
2017-10-08T21:03:16.116Z,61.50
2017-10-08T21:05:44.045Z,61.30
2017-10-08T21:08:13.541Z,61.30
2017-10-08T21:10:41.638Z,61.20
2017-10-08T21:13:09.566Z,61.10
2017-10-08T21:15:37.670Z,61.10
2017-10-08T21:18:06.001Z,60.80
2017-10-08T21:20:34.993Z,61.00
2017-10-08T21:23:02.987Z,61.00
2017-10-08T21:25:30.833Z,60.90
2017-10-08T21:27:58.726Z,61.00
2017-10-08T21:30:26.536Z,61.00
2017-10-08T21:32:54.516Z,61.10
2017-10-08T21:35:25.581Z,61.10
2017-10-08T21:37:53.501Z,61.10
2017-10-08T21:40:21.622Z,61.00
2017-10-08T21:42:49.458Z,61.10
2017-10-08T21:45:18.276Z,61.20
2017-10-08T21:47:46.124Z,61.30
2017-10-08T21:50:14.743Z,61.10
2017-10-08T21:52:42.748Z,61.10
2017-10-08T21:55:10.602Z,61.00
2017-10-08T21:57:38.456Z,60.90
2017-10-08T22:00:06.489Z,60.90
2017-10-08T22:02:34.323Z,60.90
2017-10-08T22:05:02.139Z,60.90
2017-10-08T22:07:30.067Z,61.00
2017-10-08T22:09:58.721Z,60.80
2017-10-08T22:12:26.675Z,60.80
2017-10-08T22:14:54.568Z,60.80
2017-10-08T22:17:22.479Z,60.70
2017-10-08T22:19:50.420Z,60.80
2017-10-08T22:22:19.077Z,60.90
2017-10-08T22:24:46.965Z,60.90
2017-10-08T22:27:15.160Z,60.80
2017-10-08T22:29:43.824Z,60.30
2017-10-08T22:32:11.653Z,60.30
2017-10-08T22:34:39.464Z,60.00
2017-10-08T22:37:07.278Z,59.90
2017-10-08T22:39:35.108Z,60.80
2017-10-08T22:42:03.737Z,60.00
2017-10-08T22:44:31.770Z,59.90
2017-10-08T22:47:00.432Z,59.70
2017-10-08T22:49:28.252Z,59.70
2017-10-08T22:51:56.174Z,59.20
2017-10-08T22:54:24.876Z,59.40
2017-10-08T22:56:52.791Z,59.40
2017-10-08T22:59:20.710Z,59.40
2017-10-08T23:01:48.567Z,59.40
2017-10-08T23:04:17.244Z,59.20
2017-10-08T23:06:45.946Z,59.20
2017-10-08T23:09:13.882Z,59.20
2017-10-08T23:11:42.530Z,59.30
2017-10-08T23:14:10.723Z,59.20
2017-10-08T23:16:38.554Z,59.60
2017-10-08T23:19:06.514Z,59.60
2017-10-08T23:21:34.434Z,59.70
2017-10-08T23:24:02.284Z,59.70
2017-10-08T23:26:30.109Z,59.70
2017-10-08T23:28:57.988Z,59.70
2017-10-08T23:31:25.867Z,60.10
2017-10-08T23:33:53.704Z,60.30
2017-10-08T23:36:22.364Z,60.40
2017-10-08T23:38:50.229Z,60.40
2017-10-08T23:41:18.080Z,61.10
2017-10-08T23:43:45.929Z,61.10
2017-10-08T23:46:14.492Z,60.90
2017-10-08T23:48:42.555Z,60.90
2017-10-08T23:51:10.393Z,60.90
2017-10-08T23:53:39.016Z,60.40
2017-10-08T23:56:07.627Z,60.40
2017-10-08T23:58:35.483Z,60.00
